Time;durP1;ratioP1;P1;durP2;ratioP2;P2;SDS_P1;SDS_P2;PMS_P1;PMS_P2;Temp;Humidity;BMP_temperature;BMP_pressure;BME280_temperature;BME280_humidity;BME280_pressure;Samples;Min_cycle;Max_cycle;Signal;HPM_P1;HPM_P2
2023/09/11 00:01:22;;;;;;;23.60;12.88;;;22.20;99.90;;;;;;4993807;28;20087;-56
2023/09/11 00:03:49;;;;;;;26.33;13.02;;;22.20;99.90;;;;;;5027899;28;20111;-57
2023/09/11 00:06:15;;;;;;;20.70;12.40;;;22.20;99.90;;;;;;5013204;28;20067;-56
2023/09/11 00:08:41;;;;;;;20.77;12.98;;;22.10;99.90;;;;;;5030118;28;20045;-57
2023/09/11 00:11:07;;;;;;;22.75;12.48;;;22.20;99.90;;;;;;5030767;28;20048;-55
2023/09/11 00:13:33;;;;;;;21.35;12.82;;;22.20;99.90;;;;;;5033602;28;20053;-57
2023/09/11 00:15:59;;;;;;;28.63;13.10;;;22.10;99.90;;;;;;5032123;28;20052;-57
2023/09/11 00:18:25;;;;;;;21.65;12.32;;;22.10;99.90;;;;;;5031671;28;20036;-55
2023/09/11 00:20:51;;;;;;;26.55;12.75;;;22.10;99.90;;;;;;5032848;28;20520;-57
2023/09/11 00:23:17;;;;;;;25.25;13.20;;;22.10;99.90;;;;;;5033812;28;20626;-57
2023/09/11 00:25:42;;;;;;;23.55;12.88;;;22.00;99.90;;;;;;5034911;28;20058;-57
2023/09/11 00:28:08;;;;;;;21.27;12.70;;;22.00;99.90;;;;;;4958455;28;20061;-56
2023/09/11 00:30:36;;;;;;;27.17;13.05;;;22.00;99.90;;;;;;5040142;28;20041;-57
2023/09/11 00:33:02;;;;;;;24.65;12.90;;;22.00;99.90;;;;;;5039050;28;20033;-57
2023/09/11 00:35:27;;;;;;;27.05;13.00;;;22.00;99.90;;;;;;5037740;28;20527;-56
2023/09/11 00:37:53;;;;;;;27.27;12.57;;;22.00;99.90;;;;;;5029243;28;20079;-56
2023/09/11 00:40:19;;;;;;;22.00;11.70;;;22.00;99.90;;;;;;5039552;28;22235;-56
2023/09/11 00:42:45;;;;;;;20.38;12.18;;;22.00;99.90;;;;;;5036302;28;20072;-56
2023/09/11 00:45:11;;;;;;;23.85;12.75;;;21.90;99.90;;;;;;5038408;28;20135;-57
2023/09/11 00:47:39;;;;;;;25.33;12.15;;;21.90;99.90;;;;;;5018356;28;20129;-55
2023/09/11 00:50:07;;;;;;;26.23;12.40;;;21.90;99.90;;;;;;5036646;28;20532;-56
2023/09/11 00:52:33;;;;;;;26.20;12.48;;;21.90;99.90;;;;;;5036043;28;20691;-56
2023/09/11 00:54:59;;;;;;;18.42;11.80;;;21.90;99.90;;;;;;5038776;28;20061;-56
2023/09/11 00:57:26;;;;;;;26.48;12.05;;;21.90;99.90;;;;;;5038963;28;20493;-56
2023/09/11 00:59:52;;;;;;;23.52;11.63;;;21.90;99.90;;;;;;5039854;28;20037;-57
2023/09/11 01:02:20;;;;;;;26.88;12.05;;;21.90;99.90;;;;;;5037349;28;20052;-56
2023/09/11 01:04:46;;;;;;;23.60;11.77;;;21.80;99.90;;;;;;5012019;28;20044;-57
2023/09/11 01:07:13;;;;;;;24.50;12.85;;;21.80;99.90;;;;;;5035467;28;20045;-56
2023/09/11 01:09:39;;;;;;;29.67;12.25;;;21.80;99.90;;;;;;5038688;28;20044;-55
2023/09/11 01:12:05;;;;;;;21.10;11.85;;;21.80;99.90;;;;;;5037930;28;20566;-55
2023/09/11 01:14:32;;;;;;;25.98;12.43;;;21.80;99.90;;;;;;5041434;28;20045;-55
2023/09/11 01:17:19;;;;;;;20.73;12.00;;;21.80;99.90;;;;;;5039561;28;20072;-56
2023/09/11 01:19:47;;;;;;;26.98;12.20;;;21.80;99.90;;;;;;5042934;28;20058;-57
2023/09/11 01:22:42;;;;;;;31.75;12.52;;;21.80;99.90;;;;;;5041653;28;20386;-56
2023/09/11 01:25:19;;;;;;;25.75;12.13;;;21.80;99.90;;;;;;5036742;28;20056;-55
2023/09/11 01:28:04;;;;;;;24.10;11.82;;;21.70;99.90;;;;;;5042808;28;20052;-54
2023/09/11 01:30:30;;;;;;;22.08;11.95;;;21.70;99.90;;;;;;5043487;28;20492;-56
2023/09/11 01:32:57;;;;;;;28.58;13.50;;;21.70;99.90;;;;;;5042193;28;20048;-54
2023/09/11 01:35:22;;;;;;;23.90;12.32;;;21.70;99.90;;;;;;5042661;28;20075;-56
2023/09/11 01:37:49;;;;;;;24.45;11.93;;;21.70;99.90;;;;;;5025999;28;20037;-55
2023/09/11 01:40:14;;;;;;;21.42;11.98;;;21.70;99.90;;;;;;5024253;28;20489;-55
2023/09/11 01:42:48;;;;;;;26.20;12.10;;;21.70;99.90;;;;;;5013398;28;20045;-58
2023/09/11 01:45:16;;;;;;;23.75;12.15;;;21.60;99.90;;;;;;5035111;28;20045;-56
2023/09/11 01:47:48;;;;;;;23.75;12.52;;;21.60;99.90;;;;;;5034491;28;20585;-55
2023/09/11 01:50:19;;;;;;;27.45;12.10;;;21.60;99.90;;;;;;5034392;28;20049;-56
2023/09/11 01:52:48;;;;;;;26.08;11.98;;;21.60;99.90;;;;;;5032466;28;20069;-55
2023/09/11 01:55:15;;;;;;;23.80;12.10;;;21.60;99.90;;;;;;5033895;28;21647;-56
2023/09/11 01:57:40;;;;;;;22.50;12.55;;;21.50;99.90;;;;;;5035805;28;20468;-55
2023/09/11 02:00:08;;;;;;;30.35;12.68;;;21.50;99.90;;;;;;5033501;28;20048;-55
2023/09/11 02:02:34;;;;;;;27.90;12.25;;;21.50;99.90;;;;;;5033962;28;20137;-55
2023/09/11 02:05:00;;;;;;;26.10;13.23;;;21.50;99.90;;;;;;5035158;28;20606;-57
2023/09/11 02:07:26;;;;;;;25.13;12.20;;;21.40;99.90;;;;;;5030821;28;20040;-57
2023/09/11 02:09:52;;;;;;;22.83;12.25;;;21.40;99.90;;;;;;5015997;28;20052;-57
2023/09/11 02:12:17;;;;;;;25.92;11.95;;;21.40;99.90;;;;;;5033587;28;20045;-57
2023/09/11 02:14:43;;;;;;;19.20;11.63;;;21.40;99.90;;;;;;5032030;28;20155;-55
2023/09/11 02:17:09;;;;;;;21.55;12.15;;;21.30;99.90;;;;;;5032166;28;20045;-56
2023/09/11 02:19:34;;;;;;;26.48;12.30;;;21.40;99.90;;;;;;5014085;28;20044;-55
2023/09/11 02:22:01;;;;;;;30.02;12.38;;;21.30;99.90;;;;;;5032599;28;20043;-57
2023/09/11 02:24:27;;;;;;;27.17;11.85;;;21.30;99.90;;;;;;5033784;28;20049;-56
2023/09/11 02:26:55;;;;;;;27.08;11.90;;;21.30;99.90;;;;;;5020461;28;20493;-56
2023/09/11 02:29:20;;;;;;;25.15;12.40;;;21.30;99.90;;;;;;5032569;28;20212;-58
2023/09/11 02:31:46;;;;;;;31.95;12.50;;;21.30;99.90;;;;;;5032904;28;20852;-56
2023/09/11 02:34:12;;;;;;;25.58;12.07;;;21.30;99.90;;;;;;5031746;28;20040;-57
2023/09/11 02:36:38;;;;;;;28.27;12.52;;;21.30;99.90;;;;;;5032257;28;20036;-55
2023/09/11 02:39:03;;;;;;;29.70;12.15;;;21.20;99.90;;;;;;5033269;28;20037;-55
2023/09/11 02:41:29;;;;;;;20.23;11.60;;;21.20;99.90;;;;;;5032799;28;20382;-56
2023/09/11 02:43:55;;;;;;;25.80;12.55;;;21.20;99.90;;;;;;5030125;28;20068;-57
2023/09/11 02:46:21;;;;;;;21.83;12.05;;;21.20;99.90;;;;;;5018592;28;20155;-56
2023/09/11 02:48:48;;;;;;;29.92;11.77;;;21.20;99.90;;;;;;5030803;28;20103;-56
2023/09/11 02:51:14;;;;;;;30.67;12.60;;;21.20;99.90;;;;;;5024968;28;20488;-56
2023/09/11 02:53:40;;;;;;;22.92;11.70;;;21.20;99.90;;;;;;5030490;28;20052;-54
2023/09/11 02:56:06;;;;;;;29.85;13.00;;;21.20;99.90;;;;;;5032208;28;20041;-56
2023/09/11 02:58:31;;;;;;;26.27;11.73;;;21.20;99.90;;;;;;5015779;28;20032;-56
2023/09/11 03:01:04;;;;;;;27.58;11.75;;;21.20;99.90;;;;;;5031956;28;20079;-56
2023/09/11 03:03:30;;;;;;;29.55;13.25;;;21.20;99.90;;;;;;5029796;28;20832;-55
2023/09/11 03:06:00;;;;;;;27.48;12.43;;;21.20;99.90;;;;;;5034388;28;20443;-55
2023/09/11 03:08:27;;;;;;;27.90;12.57;;;21.10;99.90;;;;;;5021360;28;20168;-56
2023/09/11 03:10:52;;;;;;;25.30;12.65;;;21.10;99.90;;;;;;5009588;28;20053;-56
2023/09/11 03:13:18;;;;;;;24.90;13.25;;;21.10;99.90;;;;;;5029768;28;20171;-56
2023/09/11 03:15:44;;;;;;;25.60;12.35;;;21.10;99.90;;;;;;5031142;28;20029;-55
2023/09/11 03:18:10;;;;;;;25.67;12.50;;;21.10;99.90;;;;;;5032218;28;20400;-58
2023/09/11 03:20:36;;;;;;;27.38;12.65;;;21.00;99.90;;;;;;5029955;28;22086;-56
2023/09/11 03:23:02;;;;;;;26.63;12.73;;;21.00;99.90;;;;;;5029817;28;20067;-56
2023/09/11 03:25:32;;;;;;;29.60;13.27;;;21.00;99.90;;;;;;5029202;28;20061;-55
2023/09/11 03:27:57;;;;;;;22.25;12.27;;;21.00;99.90;;;;;;5010281;28;20049;-57
2023/09/11 03:30:23;;;;;;;35.72;13.02;;;20.90;99.90;;;;;;5014242;28;20670;-56
2023/09/11 03:32:51;;;;;;;28.90;13.27;;;20.90;99.90;;;;;;5013983;28;20131;-57
2023/09/11 03:35:16;;;;;;;28.55;12.98;;;20.90;99.90;;;;;;5008366;28;20045;-57
2023/09/11 03:37:42;;;;;;;26.83;12.55;;;20.90;99.90;;;;;;4994504;28;20417;-57
2023/09/11 03:40:13;;;;;;;34.08;12.45;;;20.80;99.90;;;;;;5015487;28;20729;-57
2023/09/11 03:42:39;;;;;;;28.65;12.70;;;20.80;99.90;;;;;;5012018;28;20290;-56
2023/09/11 03:45:08;;;;;;;35.08;13.20;;;20.90;99.90;;;;;;4996428;28;20437;-56
2023/09/11 03:47:33;;;;;;;29.23;12.95;;;20.80;99.90;;;;;;5013470;28;20045;-55
2023/09/11 03:50:02;;;;;;;25.02;12.63;;;20.80;99.90;;;;;;5010598;28;20051;-56
2023/09/11 03:52:27;;;;;;;24.30;12.65;;;20.80;99.90;;;;;;5010366;28;20071;-55
2023/09/11 03:54:53;;;;;;;32.63;12.65;;;20.80;99.90;;;;;;4972443;28;20041;-53
2023/09/11 03:57:19;;;;;;;21.13;12.60;;;20.80;99.90;;;;;;5014172;28;20041;-56
2023/09/11 03:59:44;;;;;;;31.95;12.75;;;20.80;99.90;;;;;;5011644;28;20148;-56
2023/09/11 04:02:10;;;;;;;29.38;13.18;;;20.80;99.90;;;;;;5010560;28;20041;-57
2023/09/11 04:04:36;;;;;;;27.70;12.48;;;20.70;99.90;;;;;;5015394;28;20037;-55
2023/09/11 04:07:02;;;;;;;34.38;12.82;;;20.80;99.90;;;;;;5011698;28;20445;-56
2023/09/11 04:09:30;;;;;;;26.88;12.55;;;20.70;99.90;;;;;;5011779;28;20515;-56
2023/09/11 04:11:56;;;;;;;28.77;12.77;;;20.70;99.90;;;;;;4996793;28;20056;-56
2023/09/11 04:14:22;;;;;;;26.83;13.65;;;20.70;99.90;;;;;;5014717;28;20049;-56
2023/09/11 04:16:48;;;;;;;30.35;12.70;;;20.70;99.90;;;;;;5011567;28;20056;-56
2023/09/11 04:19:13;;;;;;;27.80;11.90;;;20.70;99.90;;;;;;4996318;28;20047;-56
2023/09/11 04:21:39;;;;;;;24.30;13.10;;;20.70;99.90;;;;;;5010561;28;20033;-57
2023/09/11 04:24:12;;;;;;;29.63;12.82;;;20.70;99.90;;;;;;5014483;28;20033;-56
2023/09/11 04:26:41;;;;;;;25.50;12.57;;;20.70;99.90;;;;;;5026624;28;20110;-56
2023/09/11 04:29:10;;;;;;;26.45;13.05;;;20.70;99.90;;;;;;5031408;28;20052;-56
2023/09/11 04:31:36;;;;;;;35.00;12.50;;;20.70;99.90;;;;;;5030163;28;20158;-56
2023/09/11 04:34:02;;;;;;;27.90;12.48;;;20.60;99.90;;;;;;5029150;28;20508;-55
2023/09/11 04:36:28;;;;;;;27.75;13.13;;;20.60;99.90;;;;;;5031229;28;20045;-55
2023/09/11 04:38:54;;;;;;;28.17;12.35;;;20.60;99.90;;;;;;5015533;28;20041;-57
2023/09/11 04:41:21;;;;;;;24.83;12.57;;;20.60;99.90;;;;;;5008565;28;20045;-57
2023/09/11 04:43:46;;;;;;;26.27;12.30;;;20.60;99.90;;;;;;4998199;28;20615;-56
2023/09/11 04:46:12;;;;;;;30.95;12.52;;;20.60;99.90;;;;;;5034349;28;20049;-54
2023/09/11 04:48:38;;;;;;;21.85;11.55;;;20.60;99.90;;;;;;5032421;28;20092;-55
2023/09/11 04:51:05;;;;;;;27.88;11.82;;;20.60;99.90;;;;;;5035646;28;20846;-55
2023/09/11 04:53:30;;;;;;;26.77;11.98;;;20.60;99.90;;;;;;5035402;28;20072;-55
2023/09/11 04:55:56;;;;;;;28.58;12.02;;;20.60;99.90;;;;;;5024489;28;20554;-55
2023/09/11 04:58:22;;;;;;;21.17;12.65;;;20.60;99.90;;;;;;5017071;28;23802;-56
2023/09/11 05:00:48;;;;;;;33.85;13.10;;;20.60;99.90;;;;;;5018334;28;20040;-57
2023/09/11 05:03:13;;;;;;;28.10;11.52;;;20.60;99.90;;;;;;5036569;28;20055;-56
2023/09/11 05:05:41;;;;;;;25.75;12.25;;;20.60;99.90;;;;;;5022334;28;20428;-56
2023/09/11 05:08:07;;;;;;;28.33;12.40;;;20.60;99.90;;;;;;5032899;28;20083;-56
2023/09/11 05:10:33;;;;;;;24.90;12.05;;;20.60;99.90;;;;;;5031271;28;20107;-56
2023/09/11 05:12:59;;;;;;;28.80;12.60;;;20.60;99.90;;;;;;5035064;28;20106;-54
2023/09/11 05:15:24;;;;;;;33.40;13.43;;;20.60;99.90;;;;;;5035688;28;20049;-57
2023/09/11 05:17:51;;;;;;;28.17;12.63;;;20.60;99.90;;;;;;5033941;28;20124;-55
2023/09/11 05:20:16;;;;;;;31.63;13.20;;;20.70;99.90;;;;;;5033980;28;20122;-55
2023/09/11 05:22:42;;;;;;;22.30;11.98;;;20.60;99.90;;;;;;5015414;28;20124;-56
2023/09/11 05:25:08;;;;;;;28.45;12.32;;;20.70;99.90;;;;;;5013906;28;20131;-56
2023/09/11 05:27:34;;;;;;;31.95;12.27;;;20.70;99.90;;;;;;5032572;28;20060;-55
2023/09/11 05:30:00;;;;;;;27.58;12.20;;;20.70;99.90;;;;;;5031850;28;20052;-55
2023/09/11 05:32:25;;;;;;;27.70;12.48;;;20.80;99.90;;;;;;5033104;28;20040;-56
2023/09/11 05:34:54;;;;;;;25.63;12.50;;;20.80;99.90;;;;;;5035014;28;20511;-56
2023/09/11 05:37:20;;;;;;;32.50;12.05;;;20.80;99.90;;;;;;5033826;28;20698;-55
2023/09/11 05:39:46;;;;;;;28.65;12.13;;;20.80;99.90;;;;;;5014383;28;20049;-55
2023/09/11 05:42:12;;;;;;;27.63;11.68;;;20.80;99.90;;;;;;5032053;28;20052;-56
2023/09/11 05:44:38;;;;;;;30.85;12.45;;;20.80;99.90;;;;;;5013627;28;20036;-54
2023/09/11 05:47:04;;;;;;;31.33;12.60;;;20.80;99.90;;;;;;5034524;28;20383;-55
2023/09/11 05:49:30;;;;;;;41.38;11.80;;;20.80;99.90;;;;;;5033580;28;20045;-55
2023/09/11 05:51:57;;;;;;;26.85;12.07;;;20.90;99.90;;;;;;5031939;28;20052;-57
2023/09/11 05:54:23;;;;;;;25.88;12.70;;;20.90;99.90;;;;;;5031704;28;20045;-57
2023/09/11 05:56:49;;;;;;;28.40;12.63;;;20.90;99.90;;;;;;5031584;28;20138;-57
2023/09/11 05:59:18;;;;;;;29.08;12.23;;;20.90;99.90;;;;;;5031622;28;20033;-57
2023/09/11 06:01:47;;;;;;;29.35;12.18;;;21.00;99.90;;;;;;5013274;28;20134;-56
2023/09/11 06:04:13;;;;;;;35.75;12.77;;;21.00;99.90;;;;;;4988407;28;21491;-56
2023/09/11 06:06:39;;;;;;;33.08;12.38;;;21.00;99.90;;;;;;5029754;28;20056;-57
2023/09/11 06:09:08;;;;;;;28.65;12.27;;;21.10;99.90;;;;;;5029833;28;20655;-50
2023/09/11 06:11:34;;;;;;;31.70;12.50;;;21.00;99.90;;;;;;5033207;28;20041;-50
2023/09/11 06:14:00;;;;;;;35.17;13.00;;;21.10;99.90;;;;;;5013894;28;20122;-48
2023/09/11 06:16:26;;;;;;;27.00;12.40;;;21.10;99.90;;;;;;5034541;28;20040;-51
2023/09/11 06:18:51;;;;;;;28.70;11.82;;;21.10;99.90;;;;;;5028419;28;20045;-49
2023/09/11 06:21:18;;;;;;;26.63;12.27;;;21.20;99.90;;;;;;5028035;28;20107;-50
2023/09/11 06:23:44;;;;;;;25.40;11.60;;;21.20;99.90;;;;;;5029044;28;20129;-48
2023/09/11 06:26:10;;;;;;;25.55;11.45;;;21.30;99.90;;;;;;5027978;28;20730;-49
2023/09/11 06:28:35;;;;;;;25.08;12.10;;;21.30;99.90;;;;;;5016357;28;20041;-49
2023/09/11 06:31:01;;;;;;;30.30;11.98;;;21.30;99.90;;;;;;5031816;28;20056;-53
2023/09/11 06:33:30;;;;;;;29.15;12.45;;;21.40;99.90;;;;;;5033546;28;20337;-50
2023/09/11 06:35:56;;;;;;;25.30;11.30;;;21.40;99.90;;;;;;5033914;28;20050;-51
2023/09/11 06:38:21;;;;;;;22.83;11.63;;;21.40;99.90;;;;;;5032177;28;20044;-50
2023/09/11 06:40:47;;;;;;;22.17;10.52;;;21.50;99.90;;;;;;5034281;28;20045;-48
2023/09/11 06:43:14;;;;;;;24.38;11.95;;;21.50;99.90;;;;;;5030953;28;20750;-49
2023/09/11 06:45:41;;;;;;;23.10;11.18;;;21.60;99.90;;;;;;5033945;28;20493;-48
2023/09/11 06:48:11;;;;;;;33.30;12.02;;;21.60;99.90;;;;;;5031972;28;20502;-47
2023/09/11 06:50:38;;;;;;;29.40;12.07;;;21.60;99.90;;;;;;5032572;28;20457;-51
2023/09/11 06:53:06;;;;;;;28.02;11.82;;;21.70;99.90;;;;;;5032828;28;20041;-48
2023/09/11 06:55:32;;;;;;;24.58;11.20;;;21.70;99.90;;;;;;5034207;28;20099;-49
2023/09/11 06:58:00;;;;;;;26.23;11.52;;;21.80;99.90;;;;;;5031767;28;20040;-50
2023/09/11 07:00:26;;;;;;;34.17;12.38;;;21.80;99.90;;;;;;5032553;28;20546;-48
2023/09/11 07:02:52;;;;;;;27.80;11.75;;;21.80;99.90;;;;;;5034220;28;20041;-47
2023/09/11 07:05:20;;;;;;;27.88;12.48;;;21.90;99.90;;;;;;5020829;28;20045;-47
2023/09/11 07:07:47;;;;;;;34.13;12.15;;;21.90;99.90;;;;;;5038450;28;20056;-48
2023/09/11 07:10:23;;;;;;;33.00;12.50;;;22.00;99.90;;;;;;5034284;28;20037;-49
2023/09/11 07:12:49;;;;;;;27.52;12.48;;;22.00;99.90;;;;;;5035677;28;20053;-49
2023/09/11 07:15:16;;;;;;;30.50;12.30;;;22.10;99.90;;;;;;5026177;28;20099;-49
2023/09/11 07:17:43;;;;;;;30.45;11.73;;;22.20;99.90;;;;;;5026721;28;20048;-47
2023/09/11 07:20:10;;;;;;;28.52;11.98;;;22.30;99.90;;;;;;5001873;28;20091;-54
2023/09/11 07:22:35;;;;;;;25.33;11.95;;;22.30;99.90;;;;;;5035728;28;20040;-50
2023/09/11 07:25:02;;;;;;;22.38;12.95;;;22.40;99.90;;;;;;5035578;28;20515;-50
2023/09/11 07:27:33;;;;;;;32.88;13.05;;;22.50;99.90;;;;;;5035904;28;20057;-47
2023/09/11 07:29:59;;;;;;;29.77;13.07;;;22.60;99.90;;;;;;5038987;28;20124;-52
2023/09/11 07:32:25;;;;;;;30.02;12.45;;;22.60;99.90;;;;;;5034057;28;20036;-48
2023/09/11 07:34:51;;;;;;;24.40;12.30;;;22.70;99.90;;;;;;5034335;28;20045;-50
2023/09/11 07:37:17;;;;;;;22.38;12.07;;;22.80;99.90;;;;;;5033016;28;20041;-50
2023/09/11 07:39:43;;;;;;;20.77;12.40;;;22.80;99.90;;;;;;5033943;28;20052;-50
2023/09/11 07:42:08;;;;;;;23.27;11.43;;;22.90;99.90;;;;;;5033960;28;20049;-48
2023/09/11 07:44:34;;;;;;;25.70;11.45;;;23.00;99.90;;;;;;5035127;28;20032;-50
2023/09/11 07:47:00;;;;;;;23.35;12.80;;;23.10;99.90;;;;;;5034204;28;20053;-49
2023/09/11 07:49:26;;;;;;;28.58;12.27;;;23.20;99.90;;;;;;5032308;28;20156;-50
2023/09/11 07:51:51;;;;;;;21.98;11.27;;;23.30;99.90;;;;;;5035526;28;20052;-48
2023/09/11 07:54:17;;;;;;;21.48;11.52;;;23.40;99.90;;;;;;5035276;28;20049;-48
2023/09/11 07:56:43;;;;;;;28.15;12.48;;;23.50;99.90;;;;;;5031994;28;20064;-52
2023/09/11 07:59:09;;;;;;;23.48;11.45;;;23.60;99.90;;;;;;5035640;28;20496;-50
2023/09/11 08:01:36;;;;;;;23.95;11.63;;;23.70;99.90;;;;;;5040588;28;20036;-47
2023/09/11 08:04:02;;;;;;;23.38;12.50;;;23.80;99.90;;;;;;5040548;28;20040;-50
2023/09/11 08:06:27;;;;;;;25.38;11.88;;;24.00;99.90;;;;;;5040130;28;20059;-52
2023/09/11 08:08:55;;;;;;;20.48;11.20;;;24.10;99.90;;;;;;5040685;28;20041;-50
2023/09/11 08:11:21;;;;;;;25.92;11.25;;;24.30;99.90;;;;;;5039815;28;20167;-49
2023/09/11 08:13:49;;;;;;;28.75;11.07;;;24.40;99.90;;;;;;5035878;28;20313;-50
2023/09/11 08:16:16;;;;;;;20.13;10.57;;;24.50;99.90;;;;;;5035382;28;20045;-51
2023/09/11 08:18:43;;;;;;;21.58;10.52;;;24.60;99.90;;;;;;5036216;28;20437;-49
2023/09/11 08:21:08;;;;;;;22.85;10.32;;;24.80;99.90;;;;;;5038151;28;20504;-52
2023/09/11 08:23:34;;;;;;;21.08;9.98;;;24.90;99.90;;;;;;5038090;28;20044;-51
2023/09/11 08:26:03;;;;;;;18.60;9.50;;;25.00;99.90;;;;;;5040492;28;20056;-49
2023/09/11 08:28:29;;;;;;;22.33;9.90;;;25.10;99.90;;;;;;5039448;28;20053;-50
2023/09/11 08:30:56;;;;;;;23.35;9.27;;;25.20;99.90;;;;;;5039527;28;20051;-50
2023/09/11 08:33:22;;;;;;;16.88;9.20;;;25.30;99.90;;;;;;5038031;28;20044;-52
2023/09/11 08:35:48;;;;;;;20.20;8.70;;;25.40;99.90;;;;;;5037010;28;20381;-49
2023/09/11 08:38:17;;;;;;;19.92;8.80;;;25.60;99.90;;;;;;5037080;28;20401;-51
2023/09/11 08:40:43;;;;;;;17.45;9.25;;;25.70;99.90;;;;;;5040615;28;20033;-50
2023/09/11 08:43:09;;;;;;;25.98;8.98;;;25.80;99.90;;;;;;5039752;28;20044;-49
2023/09/11 08:45:37;;;;;;;20.02;8.55;;;25.90;99.90;;;;;;5039936;28;20139;-51
2023/09/11 08:48:14;;;;;;;23.45;9.48;;;26.00;99.90;;;;;;5033168;28;20049;-51
2023/09/11 08:50:50;;;;;;;18.23;8.48;;;26.10;99.90;;;;;;5039471;28;20106;-49
2023/09/11 08:53:17;;;;;;;21.05;9.13;;;26.20;99.90;;;;;;5024113;28;20053;-49
2023/09/11 08:55:46;;;;;;;20.92;8.27;;;26.30;99.90;;;;;;5040435;28;20068;-49
2023/09/11 08:58:14;;;;;;;21.70;8.50;;;26.40;99.90;;;;;;5040759;28;20047;-49
2023/09/11 09:00:40;;;;;;;14.80;7.30;;;26.50;99.90;;;;;;5039733;28;20405;-47
2023/09/11 09:03:08;;;;;;;21.85;8.68;;;26.60;99.90;;;;;;5038612;28;20155;-49
2023/09/11 09:05:35;;;;;;;16.00;7.95;;;26.70;99.90;;;;;;5031652;28;20062;-49
2023/09/11 09:08:03;;;;;;;19.13;7.75;;;26.80;99.90;;;;;;5003952;28;20041;-49
2023/09/11 09:10:29;;;;;;;18.45;7.85;;;26.90;99.90;;;;;;5030166;28;20588;-52
2023/09/11 09:12:55;;;;;;;16.38;7.75;;;26.90;99.70;;;;;;5013160;28;20041;-50
2023/09/11 09:15:21;;;;;;;19.27;8.43;;;27.00;99.60;;;;;;5027604;28;20404;-49
2023/09/11 09:17:49;;;;;;;16.80;8.30;;;27.10;99.30;;;;;;5030083;28;20504;-49
2023/09/11 09:20:16;;;;;;;24.83;8.45;;;27.20;99.10;;;;;;5030695;28;20049;-49
2023/09/11 09:22:55;;;;;;;18.23;7.97;;;27.30;99.00;;;;;;5030071;28;20041;-50
2023/09/11 09:25:22;;;;;;;16.58;8.02;;;27.50;99.20;;;;;;5030899;28;20052;-49
2023/09/11 09:27:47;;;;;;;21.75;8.52;;;27.50;98.70;;;;;;5030043;28;20061;-51
2023/09/11 09:30:21;;;;;;;18.48;8.68;;;27.60;98.30;;;;;;5030806;28;20427;-50
2023/09/11 09:32:48;;;;;;;18.15;8.05;;;27.80;98.40;;;;;;5030765;28;21924;-48
2023/09/11 09:35:15;;;;;;;16.42;8.75;;;27.90;97.90;;;;;;5032636;28;20049;-50
2023/09/11 09:37:52;;;;;;;24.17;8.70;;;27.90;97.60;;;;;;5032329;28;20037;-49
2023/09/11 09:40:33;;;;;;;19.63;8.93;;;28.00;97.40;;;;;;5014782;28;20106;-50
2023/09/11 09:43:00;;;;;;;16.88;8.80;;;28.10;97.40;;;;;;5034564;28;20032;-51
2023/09/11 09:45:29;;;;;;;16.73;8.63;;;28.20;96.90;;;;;;5032835;28;20052;-52
2023/09/11 09:48:16;;;;;;;19.98;8.48;;;28.30;96.50;;;;;;5016830;28;21919;-50
2023/09/11 09:50:57;;;;;;;20.40;8.63;;;28.30;96.20;;;;;;5032116;28;20059;-49
2023/09/11 09:53:29;;;;;;;16.50;8.70;;;28.40;95.70;;;;;;5034502;28;20098;-51
2023/09/11 09:55:57;;;;;;;17.20;7.80;;;28.50;95.30;;;;;;5033302;28;20041;-51
2023/09/11 09:58:24;;;;;;;17.10;9.23;;;28.60;95.50;;;;;;5030674;28;20032;-51
2023/09/11 10:01:01;;;;;;;21.70;9.95;;;28.70;95.10;;;;;;5033370;28;20518;-48
2023/09/11 10:03:27;;;;;;;21.80;9.43;;;28.80;94.70;;;;;;5033433;28;20037;-50
2023/09/11 10:05:52;;;;;;;14.57;8.82;;;28.90;94.60;;;;;;5013288;28;20044;-52
2023/09/11 10:08:18;;;;;;;22.17;9.38;;;29.00;94.10;;;;;;5024699;28;20100;-49
2023/09/11 10:10:44;;;;;;;18.80;8.80;;;29.10;94.00;;;;;;5022384;28;20059;-50
2023/09/11 10:13:12;;;;;;;19.33;8.80;;;29.20;94.40;;;;;;5029638;28;20457;-51
2023/09/11 10:15:40;;;;;;;17.50;9.50;;;29.30;94.50;;;;;;5030464;28;20052;-48
2023/09/11 10:18:09;;;;;;;15.98;9.57;;;29.50;94.10;;;;;;5040772;28;20036;-50
2023/09/11 10:20:35;;;;;;;14.07;8.70;;;29.60;93.80;;;;;;5043201;28;20171;-49
2023/09/11 10:23:03;;;;;;;14.88;9.18;;;29.70;93.70;;;;;;5037559;28;20040;-50
2023/09/11 10:25:33;;;;;;;20.15;9.40;;;29.80;93.70;;;;;;5043320;28;20182;-50
2023/09/11 10:28:04;;;;;;;13.25;9.00;;;29.90;92.80;;;;;;5039747;28;20129;-51
2023/09/11 10:30:56;;;;;;;20.92;9.10;;;30.00;92.40;;;;;;5039514;28;20460;-51
2023/09/11 10:33:25;;;;;;;17.20;10.05;;;30.10;92.20;;;;;;5042615;28;20561;-50
2023/09/11 10:35:56;;;;;;;16.35;9.05;;;30.20;91.60;;;;;;5040427;28;20472;-52
2023/09/11 10:38:22;;;;;;;20.77;9.88;;;30.30;91.60;;;;;;5034080;28;20481;-51
2023/09/11 10:40:49;;;;;;;19.73;10.15;;;30.40;91.30;;;;;;5009878;28;20048;-50
2023/09/11 10:43:15;;;;;;;17.25;10.25;;;30.30;91.00;;;;;;5042502;28;20466;-49
2023/09/11 10:45:41;;;;;;;16.20;9.90;;;30.30;90.70;;;;;;5040388;28;20045;-52
2023/09/11 10:48:26;;;;;;;17.35;9.45;;;30.40;90.60;;;;;;5039651;28;20102;-49
2023/09/11 10:50:52;;;;;;;20.13;10.45;;;30.50;90.80;;;;;;5041890;28;20754;-53
2023/09/11 10:53:18;;;;;;;17.35;9.63;;;30.60;90.30;;;;;;5039050;28;20053;-48
2023/09/11 10:55:43;;;;;;;20.15;11.18;;;30.70;90.60;;;;;;5024048;28;20047;-49
2023/09/11 10:58:09;;;;;;;17.95;10.68;;;30.80;90.10;;;;;;5041457;28;20044;-48
2023/09/11 11:00:39;;;;;;;23.42;11.68;;;30.80;89.40;;;;;;5042523;28;20064;-50
2023/09/11 11:03:05;;;;;;;24.48;10.85;;;30.90;88.70;;;;;;5039061;28;20044;-49
2023/09/11 11:05:36;;;;;;;25.45;11.48;;;30.90;88.30;;;;;;5040224;28;20049;-49
2023/09/11 11:08:02;;;;;;;14.75;9.95;;;31.00;88.30;;;;;;5038872;28;20061;-50
2023/09/11 11:10:28;;;;;;;17.50;10.77;;;31.00;87.70;;;;;;5041785;28;20757;-49
2023/09/11 11:13:08;;;;;;;18.92;10.23;;;31.10;87.10;;;;;;5030687;28;20037;-49
2023/09/11 11:15:34;;;;;;;20.17;11.00;;;31.20;88.00;;;;;;5012362;28;20054;-48
2023/09/11 11:18:13;;;;;;;17.40;10.90;;;31.20;86.90;;;;;;5030912;28;20144;-48
2023/09/11 11:21:02;;;;;;;20.50;10.05;;;31.30;87.00;;;;;;5030782;28;20596;-50
2023/09/11 11:23:33;;;;;;;21.30;10.45;;;31.30;86.80;;;;;;5032214;28;20128;-50
2023/09/11 11:26:06;;;;;;;17.90;9.35;;;31.40;86.60;;;;;;5031549;28;20069;-49
2023/09/11 11:28:40;;;;;;;15.40;8.25;;;31.50;86.50;;;;;;5033191;28;20765;-50
2023/09/11 11:31:12;;;;;;;18.13;10.50;;;31.70;86.30;;;;;;5032263;28;20053;-53
2023/09/11 11:33:40;;;;;;;17.30;10.40;;;31.80;85.10;;;;;;5031939;28;20055;-50
2023/09/11 11:36:08;;;;;;;15.65;9.93;;;32.00;84.20;;;;;;5031226;28;20052;-51
2023/09/11 11:38:35;;;;;;;19.65;9.48;;;32.00;83.60;;;;;;5030294;28;20044;-49
2023/09/11 11:41:03;;;;;;;14.93;8.70;;;32.20;83.40;;;;;;5031597;28;20151;-48
2023/09/11 11:43:32;;;;;;;19.10;8.10;;;32.30;83.30;;;;;;5031196;28;20048;-50
2023/09/11 11:45:58;;;;;;;18.67;8.60;;;32.30;81.60;;;;;;5033606;28;20049;-53
2023/09/11 11:48:27;;;;;;;14.30;8.73;;;32.50;81.40;;;;;;5034141;28;20612;-49
2023/09/11 11:50:53;;;;;;;13.98;8.27;;;32.50;80.90;;;;;;5015986;28;20049;-50
2023/09/11 11:53:22;;;;;;;16.63;8.43;;;32.60;79.90;;;;;;4973983;28;20041;-52
2023/09/11 11:55:51;;;;;;;14.90;7.78;;;32.70;79.00;;;;;;5038036;28;20211;-49
2023/09/11 11:58:17;;;;;;;13.00;8.20;;;32.80;78.40;;;;;;5039107;28;20049;-48
2023/09/11 12:01:03;;;;;;;10.65;7.55;;;32.80;78.20;;;;;;5024085;28;20029;-49
2023/09/11 12:03:33;;;;;;;15.15;8.18;;;32.90;77.60;;;;;;5040839;28;20066;-52
2023/09/11 12:06:00;;;;;;;19.38;8.50;;;33.00;77.40;;;;;;5034735;28;20040;-51
2023/09/11 12:08:27;;;;;;;14.82;7.97;;;33.10;77.10;;;;;;5039556;28;20059;-52
2023/09/11 12:10:53;;;;;;;9.05;6.88;;;33.20;77.70;;;;;;5038201;28;20159;-52
2023/09/11 12:13:23;;;;;;;16.60;6.97;;;33.30;76.20;;;;;;5039827;28;20156;-51
2023/09/11 12:15:57;;;;;;;11.57;7.18;;;33.30;74.90;;;;;;5040762;28;20082;-50
2023/09/11 12:18:30;;;;;;;13.68;6.70;;;33.20;74.60;;;;;;5038984;28;20036;-51
2023/09/11 12:21:06;;;;;;;12.07;6.20;;;33.30;75.30;;;;;;5035829;28;20098;-50
2023/09/11 12:23:32;;;;;;;16.05;5.35;;;33.50;73.50;;;;;;5040209;28;20124;-49
2023/09/11 12:25:59;;;;;;;12.88;5.20;;;33.40;71.50;;;;;;5040077;28;20059;-51
2023/09/11 12:28:27;;;;;;;8.70;5.03;;;33.40;70.90;;;;;;5040695;28;20080;-51
2023/09/11 12:30:54;;;;;;;12.93;5.57;;;33.40;71.30;;;;;;5040016;28;20094;-51
2023/09/11 12:33:31;;;;;;;12.23;5.45;;;33.40;70.60;;;;;;5019171;28;20040;-52